Thatcher, Idaho
Current Conditions -  °F | °C
As of 6:51 PM on Thursday 20 Nov 2014 (Local Time) from KLGU Reporting Station
Overcast Overcast  
Wind Chill: 28°   Ceiling: 7500
Heat Index: 34°   Visibility: 10mi
Dew Point: 26°   Wind: 7mph
Humidity: 73%   Direction: 80°E
Pressure: 30.06"   Gusts: NA
Location:  42.41°N, 111.73°W
Report Text: KLGU 210151Z AUTO 08006KT 10SM OVC075 01/M03 A3006 RMK AO2 SLP199 T00111033
Loading
Personal Weather Stations






























Interactive Weather Map New forecast layout! Learn more

10-Day Weather Forecast

Advertisements
Track Severe Weather on mobile